Yoshkar-Ola, Russia
Current Conditions -  °F | °C
As of 6:00 AM on Monday 24 Nov 2014 (Local Time) from UWKS Reporting Station
Clear Clear  
Wind Chill: -6°   Ceiling: Unl
Heat Index:   Visibility: 6mi
Dew Point:   Wind: 4mph
Humidity: 85%   Direction: 170°S
Pressure: 30.71"   Gusts: NA
Location:  56.64°N, 47.87°E
Report Text: UWKS 240300Z 17002MPS CAVOK M16/M18 Q1040 NOSIG RMK QFE76506420158
Loading
Personal Weather Stations






























Interactive Weather Map New forecast layout! Learn more

10-Day Weather Forecast

Advertisements
Track Severe Weather on mobile